createdAt,value
2023-02-27T00:00:41.556Z,8.89
2023-02-27T00:03:08.263Z,8.96
2023-02-27T00:05:34.910Z,8.99
2023-02-27T00:08:01.559Z,8.93
2023-02-27T00:10:28.254Z,8.96
2023-02-27T00:12:56.025Z,8.93
2023-02-27T00:15:23.468Z,8.85
2023-02-27T00:17:50.680Z,8.85
2023-02-27T00:20:18.149Z,8.79
2023-02-27T00:22:45.171Z,8.76
2023-02-27T00:25:12.482Z,8.79
2023-02-27T00:27:39.431Z,8.90
2023-02-27T00:30:07.692Z,8.92
2023-02-27T00:32:36.871Z,8.93
2023-02-27T00:35:05.055Z,8.99
2023-02-27T00:37:31.781Z,9.05
2023-02-27T00:39:58.508Z,9.09
2023-02-27T00:42:25.231Z,9.10
2023-02-27T00:44:51.834Z,9.19
2023-02-27T00:47:18.559Z,9.22
2023-02-27T00:49:45.233Z,9.23
2023-02-27T00:52:11.943Z,9.24
2023-02-27T00:54:38.682Z,9.24
2023-02-27T00:57:05.338Z,9.20
2023-02-27T00:59:32.036Z,9.13
2023-02-27T01:01:58.741Z,9.10
2023-02-27T01:04:25.481Z,9.10
2023-02-27T01:06:52.156Z,9.06
2023-02-27T01:09:18.866Z,9.03
2023-02-27T01:11:45.504Z,9.02
2023-02-27T01:14:12.136Z,8.99
2023-02-27T01:16:38.905Z,8.98
2023-02-27T01:19:05.647Z,9.00
2023-02-27T01:21:32.304Z,8.96
2023-02-27T01:23:58.940Z,8.92
2023-02-27T01:26:25.659Z,8.98
2023-02-27T01:28:52.318Z,9.00
2023-02-27T01:31:19.080Z,9.02
2023-02-27T01:33:45.789Z,9.08
2023-02-27T01:36:12.426Z,9.09
2023-02-27T01:38:39.113Z,9.06
2023-02-27T01:41:07.359Z,9.13
2023-02-27T01:43:34.266Z,9.17
2023-02-27T01:46:01.311Z,9.19
2023-02-27T01:48:33.480Z,9.12
2023-02-27T01:51:01.619Z,9.09
2023-02-27T01:53:29.111Z,9.13
2023-02-27T01:55:58.574Z,9.19
2023-02-27T01:58:27.090Z,9.20
2023-02-27T02:00:53.755Z,9.22
2023-02-27T02:03:28.947Z,9.22
2023-02-27T02:05:56.419Z,9.27
2023-02-27T02:08:23.489Z,9.26
2023-02-27T02:10:51.394Z,9.29
2023-02-27T02:13:18.956Z,9.34
2023-02-27T02:15:49.056Z,9.33
2023-02-27T02:18:21.517Z,9.34
2023-02-27T02:21:06.725Z,9.34
2023-02-27T02:23:40.659Z,9.27
2023-02-27T02:26:37.762Z,9.30
2023-02-27T02:29:45.956Z,9.33
2023-02-27T02:32:21.475Z,9.27
2023-02-27T02:35:06.602Z,9.26
2023-02-27T02:38:08.394Z,9.27
2023-02-27T02:40:45.547Z,9.16
2023-02-27T02:43:16.717Z,9.08
2023-02-27T02:45:55.983Z,9.13
2023-02-27T02:48:35.106Z,9.12
2023-02-27T02:51:06.269Z,9.17
2023-02-27T02:53:56.735Z,9.15
2023-02-27T02:56:33.557Z,9.15
2023-02-27T02:59:12.245Z,9.10
2023-02-27T03:01:50.962Z,9.15
2023-02-27T03:04:58.967Z,9.10
2023-02-27T03:07:44.352Z,9.17
2023-02-27T03:10:19.845Z,9.23
2023-02-27T03:12:49.950Z,9.24
2023-02-27T03:15:47.957Z,9.30
2023-02-27T03:18:20.832Z,9.22
2023-02-27T03:20:50.395Z,9.15
2023-02-27T03:23:24.102Z,9.20
2023-02-27T03:25:50.903Z,9.26
2023-02-27T03:28:23.717Z,9.27
2023-02-27T03:31:01.054Z,9.26
2023-02-27T03:33:36.372Z,9.29
2023-02-27T03:36:14.330Z,9.26
2023-02-27T03:38:45.266Z,9.26
2023-02-27T03:41:16.674Z,9.23
2023-02-27T03:44:04.574Z,9.20
2023-02-27T03:46:31.343Z,9.19
2023-02-27T03:48:57.983Z,9.17
2023-02-27T03:51:25.296Z,9.16
2023-02-27T03:54:09.799Z,9.22
2023-02-27T03:56:58.072Z,9.26
2023-02-27T03:59:24.879Z,9.23
2023-02-27T04:01:51.613Z,9.23
2023-02-27T04:04:18.406Z,9.24
2023-02-27T04:07:35.606Z,9.29
2023-02-27T04:10:17.110Z,9.27
2023-02-27T04:12:58.956Z,9.31
2023-02-27T04:16:03.700Z,9.33
2023-02-27T04:18:56.960Z,9.27
2023-02-27T04:21:32.397Z,9.19
2023-02-27T04:24:21.430Z,9.10
2023-02-27T04:27:23.512Z,9.13
2023-02-27T04:30:15.803Z,9.08
2023-02-27T04:33:06.046Z,9.05
2023-02-27T04:35:38.451Z,9.08
2023-02-27T04:38:28.210Z,9.13
2023-02-27T04:41:00.207Z,9.10
2023-02-27T04:43:26.825Z,9.06
2023-02-27T04:45:54.033Z,9.00
2023-02-27T04:48:25.751Z,9.00
2023-02-27T04:51:02.841Z,9.02
2023-02-27T04:53:41.252Z,9.03
2023-02-27T04:56:23.307Z,9.06
2023-02-27T04:58:52.071Z,9.09
2023-02-27T05:01:28.984Z,9.05
2023-02-27T05:03:55.898Z,9.05
2023-02-27T05:06:24.577Z,9.05
2023-02-27T05:08:54.327Z,9.06
2023-02-27T05:12:04.699Z,9.12
2023-02-27T05:14:36.802Z,9.08
2023-02-27T05:17:06.440Z,9.06
2023-02-27T05:19:33.187Z,9.09
2023-02-27T05:22:06.167Z,9.10
2023-02-27T05:24:35.759Z,9.09
2023-02-27T05:27:05.080Z,9.09
2023-02-27T05:29:48.593Z,9.10
2023-02-27T05:32:27.569Z,9.08
2023-02-27T05:35:16.617Z,9.17
2023-02-27T05:37:47.963Z,9.19
2023-02-27T05:40:18.308Z,9.26
2023-02-27T05:42:53.014Z,9.27
2023-02-27T05:45:25.221Z,9.27
2023-02-27T05:47:57.683Z,9.30
2023-02-27T05:50:26.608Z,9.27
2023-02-27T05:52:53.589Z,9.30
2023-02-27T05:55:43.526Z,9.34
2023-02-27T05:58:21.055Z,9.34
2023-02-27T06:00:54.143Z,9.37
2023-02-27T06:03:20.849Z,9.40
2023-02-27T06:05:47.556Z,9.41
2023-02-27T06:08:14.421Z,9.41
2023-02-27T06:10:41.125Z,9.41
2023-02-27T06:13:07.912Z,9.46
2023-02-27T06:15:34.633Z,9.48
2023-02-27T06:18:01.307Z,9.47
2023-02-27T06:20:28.055Z,9.48
2023-02-27T06:22:54.715Z,9.52
2023-02-27T06:25:22.143Z,9.54
2023-02-27T06:27:48.952Z,9.59
2023-02-27T06:30:15.862Z,9.58
2023-02-27T06:32:42.480Z,9.59
2023-02-27T06:35:09.713Z,9.64
2023-02-27T06:37:36.532Z,9.65
2023-02-27T06:40:05.936Z,9.71
2023-02-27T06:42:33.013Z,9.62
2023-02-27T06:44:59.886Z,9.71
2023-02-27T06:47:26.576Z,9.70
2023-02-27T06:49:53.240Z,9.68
2023-02-27T06:52:19.858Z,9.77
2023-02-27T06:54:46.556Z,9.77
2023-02-27T06:57:13.314Z,9.75
2023-02-27T06:59:40.034Z,9.81
2023-02-27T07:02:06.708Z,9.85
2023-02-27T07:04:33.390Z,9.94
2023-02-27T07:07:33.939Z,10.02
2023-02-27T07:09:46.929Z,10.05
2023-02-27T07:12:13.582Z,9.91
2023-02-27T07:14:40.397Z,10.05
2023-02-27T07:17:07.018Z,10.12
2023-02-27T07:19:35.971Z,10.19
2023-02-27T07:22:02.691Z,10.26
2023-02-27T07:24:29.384Z,10.34
2023-02-27T07:26:56.090Z,10.33
2023-02-27T07:29:22.746Z,10.22
2023-02-27T07:31:49.536Z,10.22
2023-02-27T07:34:16.364Z,10.33
2023-02-27T07:36:43.603Z,10.46
2023-02-27T07:39:14.528Z,10.61
2023-02-27T07:41:41.245Z,10.88
2023-02-27T07:44:08.682Z,11.11
2023-02-27T07:46:36.193Z,11.29
2023-02-27T07:49:02.990Z,11.30
2023-02-27T07:51:29.614Z,11.33
2023-02-27T07:53:57.773Z,11.44
2023-02-27T07:56:25.687Z,11.50
2023-02-27T07:58:52.509Z,11.66
2023-02-27T08:01:19.255Z,11.73
2023-02-27T08:03:45.915Z,11.69
2023-02-27T08:06:12.573Z,11.69
2023-02-27T08:08:39.247Z,11.76
2023-02-27T08:11:06.062Z,11.91
2023-02-27T08:14:01.299Z,12.14
2023-02-27T08:16:19.473Z,12.41
2023-02-27T08:18:46.200Z,12.38
2023-02-27T08:21:12.827Z,12.42
2023-02-27T08:23:41.747Z,12.38
2023-02-27T08:26:09.282Z,12.15
2023-02-27T08:28:36.016Z,12.11
2023-02-27T08:31:02.856Z,11.87
2023-02-27T08:33:29.568Z,11.74
2023-02-27T08:35:57.091Z,11.81
2023-02-27T08:38:26.063Z,11.94
2023-02-27T08:40:55.867Z,11.99
2023-02-27T08:43:22.849Z,11.84
2023-02-27T08:45:49.767Z,11.77
2023-02-27T08:48:17.694Z,11.76
2023-02-27T08:50:44.757Z,11.84
2023-02-27T08:53:11.789Z,11.98
2023-02-27T08:55:38.394Z,11.95
2023-02-27T08:58:05.074Z,12.04
2023-02-27T09:00:32.894Z,12.11
2023-02-27T09:03:01.291Z,12.20
2023-02-27T09:05:28.637Z,12.24
2023-02-27T09:07:55.357Z,12.32
2023-02-27T09:10:22.680Z,12.50
2023-02-27T09:12:49.497Z,12.72
2023-02-27T09:15:16.255Z,12.77
2023-02-27T09:17:43.010Z,12.73
2023-02-27T09:20:10.802Z,12.72
2023-02-27T09:22:37.565Z,12.63
2023-02-27T09:25:04.617Z,12.62
2023-02-27T09:27:31.342Z,12.75
2023-02-27T09:29:58.391Z,12.99
2023-02-27T09:32:25.362Z,13.31
2023-02-27T09:34:52.134Z,13.79
2023-02-27T09:37:21.533Z,14.00
2023-02-27T09:39:48.166Z,14.40
2023-02-27T09:42:25.788Z,14.78
2023-02-27T09:45:02.948Z,15.20
2023-02-27T09:47:39.513Z,15.55
2023-02-27T09:50:21.600Z,15.51
2023-02-27T09:52:48.240Z,14.76
2023-02-27T09:55:21.858Z,14.51
2023-02-27T09:58:10.573Z,14.40
2023-02-27T10:00:50.032Z,14.27
2023-02-27T10:03:35.573Z,14.23
2023-02-27T10:06:21.440Z,14.17
2023-02-27T10:09:06.751Z,13.95
2023-02-27T10:11:43.845Z,13.91
2023-02-27T10:14:16.480Z,14.02
2023-02-27T10:16:44.385Z,13.79
2023-02-27T10:19:15.620Z,13.90
2023-02-27T10:21:44.957Z,14.02
2023-02-27T10:24:31.387Z,14.07
2023-02-27T10:27:00.039Z,14.00
2023-02-27T10:29:42.342Z,14.07
2023-02-27T10:32:26.069Z,14.18
2023-02-27T10:35:23.183Z,14.26
2023-02-27T10:37:50.901Z,14.24
2023-02-27T10:40:18.149Z,14.05
2023-02-27T10:42:45.030Z,14.13
2023-02-27T10:45:15.883Z,14.18
2023-02-27T10:47:42.778Z,14.14
2023-02-27T10:50:32.304Z,14.07
2023-02-27T10:53:00.488Z,13.83
2023-02-27T10:55:32.105Z,13.41
2023-02-27T10:57:59.020Z,13.40
2023-02-27T11:00:26.908Z,13.42
2023-02-27T11:02:53.582Z,13.35
2023-02-27T11:05:31.390Z,13.44
2023-02-27T11:08:20.654Z,13.49
2023-02-27T11:11:03.614Z,13.57
2023-02-27T11:13:50.531Z,13.62
2023-02-27T11:16:18.697Z,13.62
2023-02-27T11:18:46.605Z,13.54
2023-02-27T11:21:24.393Z,13.55
2023-02-27T11:24:02.548Z,13.54
2023-02-27T11:26:34.742Z,13.44
2023-02-27T11:29:14.926Z,13.57
2023-02-27T11:32:04.667Z,13.79
2023-02-27T11:34:38.829Z,13.85
2023-02-27T11:37:18.947Z,13.91
2023-02-27T11:40:06.696Z,13.99
2023-02-27T11:42:34.234Z,14.02
2023-02-27T11:45:03.499Z,14.13
2023-02-27T11:47:38.841Z,14.30
2023-02-27T11:50:12.737Z,14.31
2023-02-27T11:52:48.360Z,14.31
2023-02-27T11:55:17.952Z,14.37
2023-02-27T11:57:46.560Z,14.31
2023-02-27T12:00:33.647Z,14.31
2023-02-27T12:03:18.961Z,14.28
2023-02-27T12:05:56.456Z,14.13
2023-02-27T12:08:46.126Z,14.05
2023-02-27T12:11:14.706Z,14.00
2023-02-27T12:13:43.249Z,13.95
2023-02-27T12:16:17.099Z,13.82
2023-02-27T12:18:47.693Z,13.90
2023-02-27T12:21:17.638Z,14.06
2023-02-27T12:23:51.812Z,14.05
2023-02-27T12:26:22.944Z,14.10
2023-02-27T12:29:11.559Z,14.03
2023-02-27T12:31:45.288Z,13.82
2023-02-27T12:34:34.166Z,13.83
2023-02-27T12:37:15.437Z,13.86
2023-02-27T12:39:43.306Z,13.55
2023-02-27T12:42:18.982Z,13.54
2023-02-27T12:45:10.066Z,13.63
2023-02-27T12:47:52.212Z,13.75
2023-02-27T12:50:19.575Z,13.62
2023-02-27T12:52:49.759Z,13.59
2023-02-27T12:55:21.414Z,13.68
2023-02-27T12:58:42.361Z,13.58
2023-02-27T13:01:40.936Z,13.17
2023-02-27T13:04:27.083Z,13.15
2023-02-27T13:07:29.606Z,13.20
2023-02-27T13:09:59.526Z,13.18
2023-02-27T13:12:51.188Z,13.22
2023-02-27T13:15:24.858Z,13.30
2023-02-27T13:17:58.801Z,13.31
2023-02-27T13:20:27.344Z,13.25
2023-02-27T13:23:06.640Z,13.12
2023-02-27T13:25:34.539Z,13.01
2023-02-27T13:28:02.929Z,13.03
2023-02-27T13:30:29.551Z,13.01
2023-02-27T13:33:17.540Z,13.04
2023-02-27T13:36:11.894Z,13.06
2023-02-27T13:38:45.218Z,12.99
2023-02-27T13:41:20.737Z,12.94
2023-02-27T13:43:56.790Z,13.00
2023-02-27T13:46:30.372Z,13.15
2023-02-27T13:49:06.199Z,13.24
2023-02-27T13:51:36.010Z,13.21
2023-02-27T13:54:13.178Z,13.22
2023-02-27T13:56:43.764Z,13.24
2023-02-27T13:59:23.992Z,13.25
2023-02-27T14:01:55.638Z,13.14
2023-02-27T14:04:22.917Z,13.12
2023-02-27T14:06:49.656Z,13.11
2023-02-27T14:09:19.172Z,13.00
2023-02-27T14:11:57.484Z,13.00
2023-02-27T14:14:45.112Z,13.01
2023-02-27T14:17:14.253Z,12.99
2023-02-27T14:19:40.948Z,13.03
2023-02-27T14:22:16.501Z,13.07
2023-02-27T14:25:01.751Z,13.04
2023-02-27T14:27:30.881Z,12.97
2023-02-27T14:29:59.307Z,12.99
2023-02-27T14:32:26.788Z,13.07
2023-02-27T14:34:53.976Z,13.07
2023-02-27T14:37:23.566Z,13.06
2023-02-27T14:39:51.637Z,13.08
2023-02-27T14:42:24.430Z,13.07
2023-02-27T14:44:51.149Z,13.07
2023-02-27T14:47:31.313Z,13.01
2023-02-27T14:49:57.954Z,12.97
2023-02-27T14:52:31.771Z,12.97
2023-02-27T14:55:21.882Z,12.86
2023-02-27T14:58:01.678Z,12.83
2023-02-27T15:00:34.190Z,12.83
2023-02-27T15:03:00.896Z,12.80
2023-02-27T15:05:34.442Z,12.83
2023-02-27T15:08:01.581Z,12.80
2023-02-27T15:10:33.394Z,12.77
2023-02-27T15:13:00.277Z,12.76
2023-02-27T15:15:26.827Z,12.75
2023-02-27T15:17:53.984Z,12.67
2023-02-27T15:20:33.553Z,12.64
2023-02-27T15:23:01.729Z,12.56
2023-02-27T15:25:38.546Z,12.56
2023-02-27T15:28:07.936Z,12.48
2023-02-27T15:30:34.559Z,12.41
2023-02-27T15:33:02.861Z,12.36
2023-02-27T15:35:36.035Z,12.34
2023-02-27T15:38:02.843Z,12.26
2023-02-27T15:40:31.791Z,12.17
2023-02-27T15:42:58.512Z,12.17
2023-02-27T15:45:28.746Z,12.05
2023-02-27T15:47:55.406Z,11.94
2023-02-27T15:50:32.230Z,11.77
2023-02-27T15:53:00.743Z,11.65
2023-02-27T15:55:43.233Z,11.52
2023-02-27T15:58:24.824Z,11.32
2023-02-27T16:01:00.086Z,11.26
2023-02-27T16:03:30.878Z,11.16
2023-02-27T16:05:57.789Z,11.04
2023-02-27T16:08:24.642Z,11.01
2023-02-27T16:10:51.465Z,10.98
2023-02-27T16:13:37.796Z,10.97
2023-02-27T16:16:06.467Z,10.91
2023-02-27T16:18:44.707Z,10.84
2023-02-27T16:21:16.663Z,10.63
2023-02-27T16:23:43.348Z,10.57
2023-02-27T16:26:32.555Z,10.52
2023-02-27T16:29:00.803Z,10.50
2023-02-27T16:31:40.765Z,10.47
2023-02-27T16:34:13.444Z,10.44
2023-02-27T16:36:59.855Z,10.37
2023-02-27T16:39:26.722Z,10.23
2023-02-27T16:41:53.910Z,10.17
2023-02-27T16:44:21.575Z,10.09
2023-02-27T16:46:48.360Z,10.02
2023-02-27T16:49:28.795Z,10.08
2023-02-27T16:51:55.971Z,10.10
2023-02-27T16:54:22.865Z,10.12
2023-02-27T16:56:50.092Z,10.09
2023-02-27T16:59:26.880Z,10.08
2023-02-27T17:01:53.644Z,10.05
2023-02-27T17:04:25.882Z,10.02
2023-02-27T17:06:53.058Z,9.96
2023-02-27T17:09:19.779Z,9.94
2023-02-27T17:11:46.449Z,9.85
2023-02-27T17:14:13.113Z,9.78
2023-02-27T17:16:39.762Z,9.74
2023-02-27T17:19:06.531Z,9.65
2023-02-27T17:21:35.073Z,9.57
2023-02-27T17:24:01.770Z,9.54
2023-02-27T17:26:28.839Z,9.50
2023-02-27T17:28:56.485Z,9.40
2023-02-27T17:31:24.159Z,9.37
2023-02-27T17:33:51.853Z,9.37
2023-02-27T17:36:18.702Z,9.40
2023-02-27T17:38:45.416Z,9.43
2023-02-27T17:41:12.827Z,9.38
2023-02-27T17:43:40.160Z,9.37
2023-02-27T17:46:10.544Z,9.38
2023-02-27T17:48:40.237Z,9.34
2023-02-27T17:51:08.771Z,9.29
2023-02-27T17:53:35.772Z,9.19
2023-02-27T17:56:02.556Z,9.09
2023-02-27T17:58:29.236Z,9.06
2023-02-27T18:00:56.054Z,8.93
2023-02-27T18:03:22.725Z,8.90
2023-02-27T18:05:50.970Z,8.92
2023-02-27T18:08:18.228Z,8.85
2023-02-27T18:10:48.907Z,8.90
2023-02-27T18:13:16.339Z,8.96
2023-02-27T18:15:43.099Z,8.93
2023-02-27T18:18:10.042Z,8.93
2023-02-27T18:20:37.182Z,8.98
2023-02-27T18:23:03.918Z,9.00
2023-02-27T18:25:30.638Z,8.98
2023-02-27T18:27:57.250Z,8.96
2023-02-27T18:30:24.271Z,9.00
2023-02-27T18:32:51.010Z,8.96
2023-02-27T18:35:17.686Z,8.89
2023-02-27T18:37:44.407Z,8.85
2023-02-27T18:40:12.387Z,8.86
2023-02-27T18:42:39.179Z,8.75
2023-02-27T18:45:06.229Z,8.65
2023-02-27T18:47:32.939Z,8.55
2023-02-27T18:49:59.570Z,8.44
2023-02-27T18:52:26.346Z,8.42
2023-02-27T18:54:52.993Z,8.31
2023-02-27T18:57:19.684Z,8.24
2023-02-27T18:59:47.574Z,8.27
2023-02-27T19:02:15.028Z,8.21
2023-02-27T19:04:41.630Z,8.14
2023-02-27T19:07:08.550Z,8.07
2023-02-27T19:09:35.219Z,7.99
2023-02-27T19:12:01.932Z,7.89
2023-02-27T19:14:28.650Z,7.92
2023-02-27T19:16:56.664Z,7.93
2023-02-27T19:19:23.364Z,7.92
2023-02-27T19:21:50.083Z,7.86
2023-02-27T19:24:16.809Z,7.85
2023-02-27T19:26:43.477Z,7.85
2023-02-27T19:29:10.114Z,7.85
2023-02-27T19:31:36.846Z,7.79
2023-02-27T19:34:03.514Z,7.83
2023-02-27T19:36:30.951Z,7.79
2023-02-27T19:38:57.937Z,7.75
2023-02-27T19:41:24.725Z,7.76
2023-02-27T19:43:51.425Z,7.71
2023-02-27T19:46:20.182Z,7.71
2023-02-27T19:48:46.944Z,7.68
2023-02-27T19:51:14.439Z,7.69
2023-02-27T19:53:42.063Z,7.65
2023-02-27T19:56:11.217Z,7.62
2023-02-27T19:58:38.696Z,7.61
2023-02-27T20:01:05.448Z,7.59
2023-02-27T20:03:32.906Z,7.55
2023-02-27T20:05:59.796Z,7.51
2023-02-27T20:08:26.472Z,7.47
2023-02-27T20:11:00.779Z,7.47
2023-02-27T20:13:27.549Z,7.48
2023-02-27T20:15:58.405Z,7.50
2023-02-27T20:18:25.071Z,7.54
2023-02-27T20:21:08.247Z,7.55
2023-02-27T20:23:36.510Z,7.50
2023-02-27T20:26:16.348Z,7.52
2023-02-27T20:28:43.026Z,7.51
2023-02-27T20:31:10.286Z,7.52
2023-02-27T20:33:37.416Z,7.55
2023-02-27T20:36:08.752Z,7.50
2023-02-27T20:38:39.188Z,7.51
2023-02-27T20:41:10.355Z,7.45
2023-02-27T20:43:39.777Z,7.41
2023-02-27T20:46:11.965Z,7.35
2023-02-27T20:48:38.761Z,7.23
2023-02-27T20:51:14.621Z,7.21
2023-02-27T20:53:42.044Z,7.18
2023-02-27T20:56:09.076Z,7.14
2023-02-27T20:58:35.793Z,7.16
2023-02-27T21:01:05.313Z,7.17
2023-02-27T21:03:38.439Z,7.18
2023-02-27T21:06:05.731Z,7.17
2023-02-27T21:08:32.354Z,7.18
2023-02-27T21:11:00.461Z,7.27
2023-02-27T21:13:27.296Z,7.25
2023-02-27T21:15:54.058Z,7.32
2023-02-27T21:18:20.749Z,7.41
2023-02-27T21:20:47.506Z,7.45
2023-02-27T21:23:14.213Z,7.55
2023-02-27T21:25:42.351Z,7.56
2023-02-27T21:28:09.736Z,7.55
2023-02-27T21:30:36.784Z,7.58
2023-02-27T21:33:04.508Z,7.56
2023-02-27T21:35:31.249Z,7.58
2023-02-27T21:37:57.903Z,7.56
2023-02-27T21:40:24.493Z,7.52
2023-02-27T21:42:52.957Z,7.56
2023-02-27T21:45:20.457Z,7.61
2023-02-27T21:47:47.145Z,7.64
2023-02-27T21:50:14.203Z,7.65
2023-02-27T21:52:43.685Z,7.59
2023-02-27T21:55:10.938Z,7.55
2023-02-27T21:57:38.316Z,7.56
2023-02-27T22:00:07.764Z,7.65
2023-02-27T22:02:34.622Z,7.69
2023-02-27T22:05:01.301Z,7.58
2023-02-27T22:07:29.286Z,7.56
2023-02-27T22:09:55.937Z,7.61
2023-02-27T22:12:22.651Z,7.61
2023-02-27T22:14:49.340Z,7.61
2023-02-27T22:17:16.028Z,7.55
2023-02-27T22:19:42.777Z,7.58
2023-02-27T22:22:09.410Z,7.56
2023-02-27T22:24:36.034Z,7.61
2023-02-27T22:27:02.752Z,7.61
2023-02-27T22:29:29.368Z,7.65
2023-02-27T22:31:56.126Z,7.59
2023-02-27T22:34:22.845Z,7.59
2023-02-27T22:36:52.290Z,7.62
2023-02-27T22:39:19.385Z,7.64
2023-02-27T22:41:46.331Z,7.51
2023-02-27T22:44:13.913Z,7.55
2023-02-27T22:46:43.113Z,7.58
2023-02-27T22:49:29.992Z,7.62
2023-02-27T22:51:56.667Z,7.62
2023-02-27T22:54:23.335Z,7.61
2023-02-27T22:56:51.263Z,7.61
2023-02-27T22:59:18.010Z,7.66
2023-02-27T23:01:44.673Z,7.58
2023-02-27T23:04:11.525Z,7.50
2023-02-27T23:06:39.360Z,7.48
2023-02-27T23:09:07.621Z,7.51
2023-02-27T23:11:34.291Z,7.51
2023-02-27T23:14:00.979Z,7.51
2023-02-27T23:16:27.857Z,7.47
2023-02-27T23:18:55.941Z,7.50
2023-02-27T23:21:24.586Z,7.48
2023-02-27T23:23:53.888Z,7.51
2023-02-27T23:26:20.583Z,7.55
2023-02-27T23:28:47.245Z,7.59
2023-02-27T23:31:13.970Z,7.65
2023-02-27T23:33:40.639Z,7.64
2023-02-27T23:36:07.535Z,7.58
2023-02-27T23:38:34.280Z,7.61
2023-02-27T23:41:07.908Z,7.58
2023-02-27T23:43:34.703Z,7.55
2023-02-27T23:46:08.327Z,7.61
2023-02-27T23:48:35.277Z,7.65
2023-02-27T23:51:03.310Z,7.69
2023-02-27T23:53:30.378Z,7.73
2023-02-27T23:55:57.008Z,7.76
2023-02-27T23:58:23.677Z,7.78
